sensor_id;sensor_type;location;lat;lon;timestamp;P1;durP1;ratioP1;P2;durP2;ratioP2
4980;SDS011;2507;50.392;7.482;2022-12-20T00:00:12;25.20;;;20.40;;
4980;SDS011;2507;50.392;7.482;2022-12-20T00:02:38;28.90;;;21.63;;
4980;SDS011;2507;50.392;7.482;2022-12-20T00:05:03;29.90;;;22.77;;
4980;SDS011;2507;50.392;7.482;2022-12-20T00:07:29;28.10;;;21.53;;
4980;SDS011;2507;50.392;7.482;2022-12-20T00:09:54;26.23;;;21.30;;
4980;SDS011;2507;50.392;7.482;2022-12-20T00:12:19;29.00;;;22.10;;
4980;SDS011;2507;50.392;7.482;2022-12-20T00:14:45;25.20;;;20.80;;
4980;SDS011;2507;50.392;7.482;2022-12-20T00:17:10;28.73;;;21.53;;
4980;SDS011;2507;50.392;7.482;2022-12-20T00:19:35;27.93;;;21.93;;
4980;SDS011;2507;50.392;7.482;2022-12-20T00:22:01;24.30;;;21.07;;
4980;SDS011;2507;50.392;7.482;2022-12-20T00:24:26;28.47;;;21.80;;
4980;SDS011;2507;50.392;7.482;2022-12-20T00:26:52;27.73;;;20.73;;
4980;SDS011;2507;50.392;7.482;2022-12-20T00:29:17;28.03;;;21.67;;
4980;SDS011;2507;50.392;7.482;2022-12-20T00:31:42;28.50;;;20.83;;
4980;SDS011;2507;50.392;7.482;2022-12-20T00:34:08;33.87;;;24.37;;
4980;SDS011;2507;50.392;7.482;2022-12-20T00:36:33;28.53;;;21.43;;
4980;SDS011;2507;50.392;7.482;2022-12-20T00:38:58;26.17;;;20.87;;
4980;SDS011;2507;50.392;7.482;2022-12-20T00:41:26;26.50;;;21.03;;
4980;SDS011;2507;50.392;7.482;2022-12-20T00:43:53;28.57;;;22.30;;
4980;SDS011;2507;50.392;7.482;2022-12-20T00:46:19;24.90;;;20.07;;
4980;SDS011;2507;50.392;7.482;2022-12-20T00:48:47;28.13;;;21.10;;
4980;SDS011;2507;50.392;7.482;2022-12-20T00:51:14;27.23;;;22.20;;
4980;SDS011;2507;50.392;7.482;2022-12-20T00:53:42;29.10;;;21.17;;
4980;SDS011;2507;50.392;7.482;2022-12-20T00:56:08;24.87;;;19.37;;
4980;SDS011;2507;50.392;7.482;2022-12-20T00:58:35;29.53;;;23.03;;
4980;SDS011;2507;50.392;7.482;2022-12-20T01:01:02;26.27;;;21.60;;
4980;SDS011;2507;50.392;7.482;2022-12-20T01:03:28;26.40;;;20.40;;
4980;SDS011;2507;50.392;7.482;2022-12-20T01:08:21;28.83;;;22.70;;
4980;SDS011;2507;50.392;7.482;2022-12-20T01:11:30;25.30;;;19.57;;
4980;SDS011;2507;50.392;7.482;2022-12-20T01:13:39;29.10;;;21.20;;
4980;SDS011;2507;50.392;7.482;2022-12-20T01:16:07;28.63;;;22.17;;
4980;SDS011;2507;50.392;7.482;2022-12-20T01:18:36;28.50;;;22.47;;
4980;SDS011;2507;50.392;7.482;2022-12-20T01:21:03;25.37;;;20.67;;
4980;SDS011;2507;50.392;7.482;2022-12-20T01:23:33;32.70;;;23.17;;
4980;SDS011;2507;50.392;7.482;2022-12-20T01:25:59;31.37;;;22.00;;
4980;SDS011;2507;50.392;7.482;2022-12-20T01:28:26;24.43;;;20.27;;
4980;SDS011;2507;50.392;7.482;2022-12-20T01:30:52;28.83;;;22.20;;
4980;SDS011;2507;50.392;7.482;2022-12-20T01:33:17;30.40;;;21.93;;
4980;SDS011;2507;50.392;7.482;2022-12-20T01:35:53;27.90;;;21.37;;
4980;SDS011;2507;50.392;7.482;2022-12-20T01:38:19;27.93;;;23.10;;
4980;SDS011;2507;50.392;7.482;2022-12-20T01:40:44;26.90;;;21.90;;
4980;SDS011;2507;50.392;7.482;2022-12-20T01:43:11;26.70;;;21.40;;
4980;SDS011;2507;50.392;7.482;2022-12-20T01:45:38;23.73;;;20.40;;
4980;SDS011;2507;50.392;7.482;2022-12-20T01:48:04;31.87;;;22.77;;
4980;SDS011;2507;50.392;7.482;2022-12-20T01:50:29;23.00;;;18.77;;
4980;SDS011;2507;50.392;7.482;2022-12-20T01:52:55;30.23;;;21.33;;
4980;SDS011;2507;50.392;7.482;2022-12-20T01:55:23;28.47;;;21.30;;
4980;SDS011;2507;50.392;7.482;2022-12-20T01:57:53;26.80;;;20.63;;
4980;SDS011;2507;50.392;7.482;2022-12-20T02:00:27;28.43;;;20.83;;
4980;SDS011;2507;50.392;7.482;2022-12-20T02:02:53;26.90;;;20.53;;
4980;SDS011;2507;50.392;7.482;2022-12-20T02:05:22;27.27;;;21.13;;
4980;SDS011;2507;50.392;7.482;2022-12-20T02:07:48;27.03;;;21.27;;
4980;SDS011;2507;50.392;7.482;2022-12-20T02:10:16;27.00;;;21.87;;
4980;SDS011;2507;50.392;7.482;2022-12-20T02:12:45;24.87;;;20.70;;
4980;SDS011;2507;50.392;7.482;2022-12-20T02:15:16;23.73;;;19.60;;
4980;SDS011;2507;50.392;7.482;2022-12-20T02:18:10;24.37;;;19.40;;
4980;SDS011;2507;50.392;7.482;2022-12-20T02:20:46;26.20;;;19.40;;
4980;SDS011;2507;50.392;7.482;2022-12-20T02:26:25;24.13;;;18.27;;
4980;SDS011;2507;50.392;7.482;2022-12-20T02:31:49;19.50;;;16.33;;
4980;SDS011;2507;50.392;7.482;2022-12-20T02:34:43;20.47;;;15.63;;
4980;SDS011;2507;50.392;7.482;2022-12-20T02:37:08;18.37;;;15.90;;
4980;SDS011;2507;50.392;7.482;2022-12-20T02:39:34;18.93;;;16.27;;
4980;SDS011;2507;50.392;7.482;2022-12-20T02:42:04;20.53;;;15.40;;
4980;SDS011;2507;50.392;7.482;2022-12-20T02:44:33;20.77;;;17.00;;
4980;SDS011;2507;50.392;7.482;2022-12-20T02:47:20;19.30;;;16.87;;
4980;SDS011;2507;50.392;7.482;2022-12-20T02:49:51;21.77;;;18.00;;
4980;SDS011;2507;50.392;7.482;2022-12-20T02:52:19;19.80;;;17.00;;
4980;SDS011;2507;50.392;7.482;2022-12-20T02:54:46;18.67;;;15.37;;
4980;SDS011;2507;50.392;7.482;2022-12-20T02:57:14;19.23;;;16.10;;
4980;SDS011;2507;50.392;7.482;2022-12-20T02:59:49;20.93;;;16.73;;
4980;SDS011;2507;50.392;7.482;2022-12-20T03:02:26;21.50;;;16.90;;
4980;SDS011;2507;50.392;7.482;2022-12-20T03:04:52;20.43;;;17.37;;
4980;SDS011;2507;50.392;7.482;2022-12-20T03:07:18;20.87;;;16.90;;
4980;SDS011;2507;50.392;7.482;2022-12-20T03:09:43;26.00;;;18.37;;
4980;SDS011;2507;50.392;7.482;2022-12-20T03:12:10;26.67;;;19.77;;
4980;SDS011;2507;50.392;7.482;2022-12-20T03:14:37;22.20;;;17.47;;
4980;SDS011;2507;50.392;7.482;2022-12-20T03:17:03;21.03;;;17.53;;
4980;SDS011;2507;50.392;7.482;2022-12-20T03:19:28;20.10;;;15.50;;
4980;SDS011;2507;50.392;7.482;2022-12-20T03:21:54;20.53;;;15.70;;
4980;SDS011;2507;50.392;7.482;2022-12-20T03:24:20;19.80;;;16.60;;
4980;SDS011;2507;50.392;7.482;2022-12-20T03:26:45;24.17;;;17.93;;
4980;SDS011;2507;50.392;7.482;2022-12-20T03:29:10;20.00;;;16.30;;
4980;SDS011;2507;50.392;7.482;2022-12-20T03:31:36;20.73;;;16.60;;
4980;SDS011;2507;50.392;7.482;2022-12-20T03:34:01;29.40;;;19.37;;
4980;SDS011;2507;50.392;7.482;2022-12-20T03:36:27;25.00;;;18.60;;
4980;SDS011;2507;50.392;7.482;2022-12-20T03:38:53;22.83;;;17.70;;
4980;SDS011;2507;50.392;7.482;2022-12-20T03:41:18;22.40;;;18.73;;
4980;SDS011;2507;50.392;7.482;2022-12-20T03:43:46;23.70;;;18.30;;
4980;SDS011;2507;50.392;7.482;2022-12-20T03:46:12;22.67;;;16.33;;
4980;SDS011;2507;50.392;7.482;2022-12-20T03:48:37;22.20;;;17.30;;
4980;SDS011;2507;50.392;7.482;2022-12-20T03:51:03;19.50;;;15.40;;
4980;SDS011;2507;50.392;7.482;2022-12-20T03:53:28;21.60;;;16.60;;
4980;SDS011;2507;50.392;7.482;2022-12-20T03:55:53;16.90;;;14.93;;
4980;SDS011;2507;50.392;7.482;2022-12-20T03:58:19;17.93;;;15.27;;
4980;SDS011;2507;50.392;7.482;2022-12-20T04:00:44;16.60;;;14.63;;
4980;SDS011;2507;50.392;7.482;2022-12-20T04:03:09;18.77;;;15.80;;
4980;SDS011;2507;50.392;7.482;2022-12-20T04:05:35;23.87;;;16.80;;
4980;SDS011;2507;50.392;7.482;2022-12-20T04:08:00;19.00;;;15.90;;
4980;SDS011;2507;50.392;7.482;2022-12-20T04:10:25;19.60;;;16.57;;
4980;SDS011;2507;50.392;7.482;2022-12-20T04:12:51;20.93;;;16.33;;
4980;SDS011;2507;50.392;7.482;2022-12-20T04:15:16;18.03;;;16.10;;
4980;SDS011;2507;50.392;7.482;2022-12-20T04:17:42;23.20;;;17.47;;
4980;SDS011;2507;50.392;7.482;2022-12-20T04:20:09;39.63;;;25.80;;
4980;SDS011;2507;50.392;7.482;2022-12-20T04:22:45;48.50;;;29.93;;
4980;SDS011;2507;50.392;7.482;2022-12-20T04:25:11;36.07;;;24.90;;
4980;SDS011;2507;50.392;7.482;2022-12-20T04:27:36;31.53;;;22.80;;
4980;SDS011;2507;50.392;7.482;2022-12-20T04:30:01;27.20;;;21.07;;
4980;SDS011;2507;50.392;7.482;2022-12-20T04:32:27;25.87;;;20.10;;
4980;SDS011;2507;50.392;7.482;2022-12-20T04:34:52;20.73;;;16.40;;
4980;SDS011;2507;50.392;7.482;2022-12-20T04:37:17;18.40;;;14.60;;
4980;SDS011;2507;50.392;7.482;2022-12-20T04:39:43;19.17;;;15.30;;
4980;SDS011;2507;50.392;7.482;2022-12-20T04:42:08;17.90;;;15.63;;
4980;SDS011;2507;50.392;7.482;2022-12-20T04:44:33;17.83;;;15.10;;
4980;SDS011;2507;50.392;7.482;2022-12-20T04:46:58;22.50;;;16.87;;
4980;SDS011;2507;50.392;7.482;2022-12-20T04:49:24;21.03;;;14.40;;
4980;SDS011;2507;50.392;7.482;2022-12-20T04:51:49;16.90;;;14.20;;
4980;SDS011;2507;50.392;7.482;2022-12-20T04:54:14;19.77;;;14.53;;
4980;SDS011;2507;50.392;7.482;2022-12-20T04:56:39;17.47;;;14.43;;
4980;SDS011;2507;50.392;7.482;2022-12-20T04:59:05;16.70;;;14.27;;
4980;SDS011;2507;50.392;7.482;2022-12-20T05:01:30;19.80;;;15.03;;
4980;SDS011;2507;50.392;7.482;2022-12-20T05:03:55;18.20;;;15.13;;
4980;SDS011;2507;50.392;7.482;2022-12-20T05:06:21;17.83;;;14.67;;
4980;SDS011;2507;50.392;7.482;2022-12-20T05:08:46;17.80;;;14.73;;
4980;SDS011;2507;50.392;7.482;2022-12-20T05:11:11;16.30;;;14.60;;
4980;SDS011;2507;50.392;7.482;2022-12-20T05:13:37;19.27;;;15.50;;
4980;SDS011;2507;50.392;7.482;2022-12-20T05:16:03;18.70;;;16.03;;
4980;SDS011;2507;50.392;7.482;2022-12-20T05:18:28;18.20;;;15.20;;
4980;SDS011;2507;50.392;7.482;2022-12-20T05:20:55;20.97;;;16.70;;
4980;SDS011;2507;50.392;7.482;2022-12-20T05:23:40;18.70;;;14.57;;
4980;SDS011;2507;50.392;7.482;2022-12-20T05:26:24;19.53;;;16.37;;
4980;SDS011;2507;50.392;7.482;2022-12-20T05:28:51;18.80;;;13.97;;
4980;SDS011;2507;50.392;7.482;2022-12-20T05:31:16;19.20;;;14.83;;
4980;SDS011;2507;50.392;7.482;2022-12-20T05:33:42;16.60;;;14.47;;
4980;SDS011;2507;50.392;7.482;2022-12-20T05:36:07;14.97;;;13.37;;
4980;SDS011;2507;50.392;7.482;2022-12-20T05:38:33;18.00;;;16.00;;
4980;SDS011;2507;50.392;7.482;2022-12-20T05:40:58;19.33;;;17.10;;
4980;SDS011;2507;50.392;7.482;2022-12-20T05:43:23;21.37;;;15.60;;
4980;SDS011;2507;50.392;7.482;2022-12-20T05:45:50;17.23;;;14.20;;
4980;SDS011;2507;50.392;7.482;2022-12-20T05:48:17;17.43;;;14.13;;
4980;SDS011;2507;50.392;7.482;2022-12-20T05:50:44;16.00;;;14.30;;
4980;SDS011;2507;50.392;7.482;2022-12-20T05:53:10;15.33;;;13.50;;
4980;SDS011;2507;50.392;7.482;2022-12-20T05:55:44;17.03;;;14.80;;
4980;SDS011;2507;50.392;7.482;2022-12-20T05:58:11;16.33;;;13.13;;
4980;SDS011;2507;50.392;7.482;2022-12-20T06:00:38;18.13;;;15.93;;
4980;SDS011;2507;50.392;7.482;2022-12-20T06:03:04;21.50;;;16.97;;
4980;SDS011;2507;50.392;7.482;2022-12-20T06:05:30;19.30;;;17.20;;
4980;SDS011;2507;50.392;7.482;2022-12-20T06:07:56;23.43;;;18.00;;
4980;SDS011;2507;50.392;7.482;2022-12-20T06:10:21;18.07;;;16.17;;
4980;SDS011;2507;50.392;7.482;2022-12-20T06:12:46;18.77;;;15.87;;
4980;SDS011;2507;50.392;7.482;2022-12-20T06:15:12;15.77;;;14.17;;
4980;SDS011;2507;50.392;7.482;2022-12-20T06:17:39;15.70;;;12.70;;
4980;SDS011;2507;50.392;7.482;2022-12-20T06:20:04;10.87;;;9.83;;
4980;SDS011;2507;50.392;7.482;2022-12-20T06:22:30;15.10;;;11.13;;
4980;SDS011;2507;50.392;7.482;2022-12-20T06:24:56;13.80;;;12.40;;
4980;SDS011;2507;50.392;7.482;2022-12-20T06:27:21;23.83;;;14.10;;
4980;SDS011;2507;50.392;7.482;2022-12-20T06:29:47;19.43;;;16.20;;
4980;SDS011;2507;50.392;7.482;2022-12-20T06:32:16;16.90;;;15.10;;
4980;SDS011;2507;50.392;7.482;2022-12-20T06:34:41;20.97;;;14.40;;
4980;SDS011;2507;50.392;7.482;2022-12-20T06:37:07;16.97;;;14.63;;
4980;SDS011;2507;50.392;7.482;2022-12-20T06:39:32;23.70;;;19.47;;
4980;SDS011;2507;50.392;7.482;2022-12-20T06:41:57;19.47;;;16.43;;
4980;SDS011;2507;50.392;7.482;2022-12-20T06:44:23;22.20;;;17.97;;
4980;SDS011;2507;50.392;7.482;2022-12-20T06:46:48;26.33;;;19.43;;
4980;SDS011;2507;50.392;7.482;2022-12-20T06:49:13;30.77;;;20.63;;
4980;SDS011;2507;50.392;7.482;2022-12-20T06:51:39;27.73;;;20.47;;
4980;SDS011;2507;50.392;7.482;2022-12-20T06:54:04;36.50;;;24.13;;
4980;SDS011;2507;50.392;7.482;2022-12-20T06:56:29;43.30;;;29.40;;
4980;SDS011;2507;50.392;7.482;2022-12-20T06:58:55;38.90;;;26.67;;
4980;SDS011;2507;50.392;7.482;2022-12-20T07:01:20;44.30;;;30.73;;
4980;SDS011;2507;50.392;7.482;2022-12-20T07:03:45;44.97;;;29.20;;
4980;SDS011;2507;50.392;7.482;2022-12-20T07:06:11;35.03;;;24.70;;
4980;SDS011;2507;50.392;7.482;2022-12-20T07:08:36;40.33;;;25.47;;
4980;SDS011;2507;50.392;7.482;2022-12-20T07:11:02;36.00;;;23.20;;
4980;SDS011;2507;50.392;7.482;2022-12-20T07:13:29;29.20;;;19.53;;
4980;SDS011;2507;50.392;7.482;2022-12-20T07:15:58;22.20;;;17.80;;
4980;SDS011;2507;50.392;7.482;2022-12-20T07:18:24;19.17;;;16.10;;
4980;SDS011;2507;50.392;7.482;2022-12-20T07:20:49;16.73;;;13.77;;
4980;SDS011;2507;50.392;7.482;2022-12-20T07:23:15;16.90;;;13.87;;
4980;SDS011;2507;50.392;7.482;2022-12-20T07:25:40;19.90;;;15.70;;
4980;SDS011;2507;50.392;7.482;2022-12-20T07:28:05;19.67;;;15.10;;
4980;SDS011;2507;50.392;7.482;2022-12-20T07:30:30;19.00;;;15.17;;
4980;SDS011;2507;50.392;7.482;2022-12-20T07:32:56;20.60;;;16.63;;
4980;SDS011;2507;50.392;7.482;2022-12-20T07:35:21;18.90;;;15.90;;
4980;SDS011;2507;50.392;7.482;2022-12-20T07:37:46;20.23;;;16.63;;
4980;SDS011;2507;50.392;7.482;2022-12-20T07:40:12;21.30;;;17.77;;
4980;SDS011;2507;50.392;7.482;2022-12-20T07:42:38;17.27;;;15.27;;
4980;SDS011;2507;50.392;7.482;2022-12-20T07:45:04;16.60;;;14.87;;
4980;SDS011;2507;50.392;7.482;2022-12-20T07:47:29;16.30;;;13.67;;
4980;SDS011;2507;50.392;7.482;2022-12-20T07:49:55;18.47;;;15.10;;
4980;SDS011;2507;50.392;7.482;2022-12-20T07:52:20;17.87;;;15.67;;
4980;SDS011;2507;50.392;7.482;2022-12-20T07:54:52;18.87;;;15.40;;
4980;SDS011;2507;50.392;7.482;2022-12-20T07:57:22;19.67;;;15.17;;
4980;SDS011;2507;50.392;7.482;2022-12-20T07:59:52;22.27;;;15.27;;
4980;SDS011;2507;50.392;7.482;2022-12-20T08:02:22;16.77;;;13.60;;
4980;SDS011;2507;50.392;7.482;2022-12-20T08:04:52;16.07;;;13.57;;
4980;SDS011;2507;50.392;7.482;2022-12-20T08:07:19;16.83;;;15.00;;
4980;SDS011;2507;50.392;7.482;2022-12-20T08:09:45;18.43;;;15.00;;
4980;SDS011;2507;50.392;7.482;2022-12-20T08:12:11;17.40;;;14.90;;
4980;SDS011;2507;50.392;7.482;2022-12-20T08:14:40;19.07;;;15.43;;
4980;SDS011;2507;50.392;7.482;2022-12-20T08:17:05;17.30;;;15.50;;
4980;SDS011;2507;50.392;7.482;2022-12-20T08:19:31;16.30;;;14.23;;
4980;SDS011;2507;50.392;7.482;2022-12-20T08:21:56;19.90;;;15.30;;
4980;SDS011;2507;50.392;7.482;2022-12-20T08:24:21;17.90;;;12.43;;
4980;SDS011;2507;50.392;7.482;2022-12-20T08:26:47;16.03;;;14.33;;
4980;SDS011;2507;50.392;7.482;2022-12-20T08:29:12;16.33;;;14.63;;
4980;SDS011;2507;50.392;7.482;2022-12-20T08:31:38;37.73;;;27.40;;
4980;SDS011;2507;50.392;7.482;2022-12-20T08:34:04;35.23;;;22.50;;
4980;SDS011;2507;50.392;7.482;2022-12-20T08:36:30;32.63;;;23.53;;
4980;SDS011;2507;50.392;7.482;2022-12-20T08:38:55;26.43;;;19.90;;
4980;SDS011;2507;50.392;7.482;2022-12-20T08:41:20;25.33;;;20.97;;
4980;SDS011;2507;50.392;7.482;2022-12-20T08:43:46;25.30;;;19.10;;
4980;SDS011;2507;50.392;7.482;2022-12-20T08:46:11;21.47;;;18.33;;
4980;SDS011;2507;50.392;7.482;2022-12-20T08:48:37;24.97;;;19.83;;
4980;SDS011;2507;50.392;7.482;2022-12-20T08:51:03;25.60;;;19.67;;
4980;SDS011;2507;50.392;7.482;2022-12-20T08:53:31;18.33;;;14.70;;
4980;SDS011;2507;50.392;7.482;2022-12-20T08:56:05;18.40;;;13.80;;
4980;SDS011;2507;50.392;7.482;2022-12-20T08:58:33;15.37;;;12.43;;
4980;SDS011;2507;50.392;7.482;2022-12-20T09:00:59;16.50;;;11.23;;
4980;SDS011;2507;50.392;7.482;2022-12-20T09:03:25;18.13;;;15.60;;
4980;SDS011;2507;50.392;7.482;2022-12-20T09:05:51;41.23;;;32.50;;
4980;SDS011;2507;50.392;7.482;2022-12-20T09:08:16;48.90;;;38.00;;
4980;SDS011;2507;50.392;7.482;2022-12-20T09:10:42;22.10;;;16.50;;
4980;SDS011;2507;50.392;7.482;2022-12-20T09:13:07;15.23;;;13.60;;
4980;SDS011;2507;50.392;7.482;2022-12-20T09:15:34;18.97;;;16.10;;
4980;SDS011;2507;50.392;7.482;2022-12-20T09:18:00;19.03;;;16.07;;
4980;SDS011;2507;50.392;7.482;2022-12-20T09:20:26;16.83;;;14.80;;
4980;SDS011;2507;50.392;7.482;2022-12-20T09:22:52;16.73;;;13.10;;
4980;SDS011;2507;50.392;7.482;2022-12-20T09:25:17;19.13;;;14.77;;
4980;SDS011;2507;50.392;7.482;2022-12-20T09:27:42;16.80;;;14.73;;
4980;SDS011;2507;50.392;7.482;2022-12-20T09:30:07;30.23;;;21.93;;
4980;SDS011;2507;50.392;7.482;2022-12-20T09:32:33;30.20;;;23.63;;
4980;SDS011;2507;50.392;7.482;2022-12-20T09:34:58;27.63;;;22.57;;
4980;SDS011;2507;50.392;7.482;2022-12-20T09:37:24;23.57;;;20.60;;
4980;SDS011;2507;50.392;7.482;2022-12-20T09:39:49;28.23;;;22.17;;
4980;SDS011;2507;50.392;7.482;2022-12-20T09:42:23;22.63;;;20.07;;
4980;SDS011;2507;50.392;7.482;2022-12-20T09:44:50;22.00;;;18.93;;
4980;SDS011;2507;50.392;7.482;2022-12-20T09:47:19;23.50;;;18.90;;
4980;SDS011;2507;50.392;7.482;2022-12-20T09:49:48;25.40;;;19.77;;
4980;SDS011;2507;50.392;7.482;2022-12-20T09:57:39;21.40;;;17.77;;
4980;SDS011;2507;50.392;7.482;2022-12-20T10:00:15;25.17;;;20.80;;
4980;SDS011;2507;50.392;7.482;2022-12-20T10:02:42;23.77;;;19.43;;
4980;SDS011;2507;50.392;7.482;2022-12-20T10:05:19;24.80;;;20.37;;
4980;SDS011;2507;50.392;7.482;2022-12-20T10:07:52;22.23;;;16.70;;
4980;SDS011;2507;50.392;7.482;2022-12-20T10:10:42;14.77;;;13.27;;
4980;SDS011;2507;50.392;7.482;2022-12-20T10:13:19;15.47;;;11.40;;
4980;SDS011;2507;50.392;7.482;2022-12-20T10:15:50;17.77;;;11.23;;
4980;SDS011;2507;50.392;7.482;2022-12-20T10:18:34;19.20;;;13.93;;
4980;SDS011;2507;50.392;7.482;2022-12-20T10:23:45;18.03;;;13.87;;
4980;SDS011;2507;50.392;7.482;2022-12-20T10:26:26;24.90;;;15.87;;
4980;SDS011;2507;50.392;7.482;2022-12-20T10:28:53;19.57;;;15.27;;
4980;SDS011;2507;50.392;7.482;2022-12-20T10:31:18;17.43;;;13.83;;
4980;SDS011;2507;50.392;7.482;2022-12-20T10:33:43;25.40;;;19.67;;
4980;SDS011;2507;50.392;7.482;2022-12-20T10:36:20;25.10;;;19.33;;
4980;SDS011;2507;50.392;7.482;2022-12-20T10:38:54;35.50;;;24.40;;
4980;SDS011;2507;50.392;7.482;2022-12-20T10:41:25;41.33;;;30.07;;
4980;SDS011;2507;50.392;7.482;2022-12-20T10:44:03;40.73;;;30.23;;
4980;SDS011;2507;50.392;7.482;2022-12-20T10:46:41;34.13;;;25.00;;
4980;SDS011;2507;50.392;7.482;2022-12-20T10:49:21;27.53;;;20.53;;
4980;SDS011;2507;50.392;7.482;2022-12-20T10:52:15;72.40;;;53.33;;
4980;SDS011;2507;50.392;7.482;2022-12-20T10:54:42;50.70;;;37.07;;
4980;SDS011;2507;50.392;7.482;2022-12-20T10:57:20;27.30;;;19.80;;
4980;SDS011;2507;50.392;7.482;2022-12-20T10:59:49;23.33;;;17.37;;
4980;SDS011;2507;50.392;7.482;2022-12-20T11:02:31;18.50;;;14.80;;
4980;SDS011;2507;50.392;7.482;2022-12-20T11:05:03;23.00;;;15.10;;
4980;SDS011;2507;50.392;7.482;2022-12-20T11:10:22;20.30;;;16.37;;
4980;SDS011;2507;50.392;7.482;2022-12-20T11:12:56;25.40;;;17.60;;
4980;SDS011;2507;50.392;7.482;2022-12-20T11:15:30;19.10;;;15.03;;
4980;SDS011;2507;50.392;7.482;2022-12-20T11:17:58;20.53;;;16.80;;
4980;SDS011;2507;50.392;7.482;2022-12-20T11:23:13;16.73;;;13.63;;
4980;SDS011;2507;50.392;7.482;2022-12-20T11:28:59;16.40;;;14.70;;
4980;SDS011;2507;50.392;7.482;2022-12-20T11:34:35;21.93;;;14.83;;
4980;SDS011;2507;50.392;7.482;2022-12-20T11:37:20;27.67;;;16.83;;
4980;SDS011;2507;50.392;7.482;2022-12-20T11:42:57;40.37;;;31.23;;
4980;SDS011;2507;50.392;7.482;2022-12-20T11:45:37;68.67;;;46.57;;
4980;SDS011;2507;50.392;7.482;2022-12-20T11:51:29;22.93;;;16.90;;
4980;SDS011;2507;50.392;7.482;2022-12-20T11:53:42;21.00;;;17.07;;
4980;SDS011;2507;50.392;7.482;2022-12-20T11:56:18;21.30;;;16.63;;
4980;SDS011;2507;50.392;7.482;2022-12-20T11:58:49;21.07;;;17.80;;
4980;SDS011;2507;50.392;7.482;2022-12-20T12:01:54;21.13;;;17.63;;
4980;SDS011;2507;50.392;7.482;2022-12-20T12:04:15;22.13;;;17.13;;
4980;SDS011;2507;50.392;7.482;2022-12-20T12:06:46;24.43;;;20.47;;
4980;SDS011;2507;50.392;7.482;2022-12-20T12:09:39;31.43;;;20.10;;
4980;SDS011;2507;50.392;7.482;2022-12-20T12:12:11;35.20;;;23.50;;
4980;SDS011;2507;50.392;7.482;2022-12-20T12:14:51;36.30;;;26.40;;
4980;SDS011;2507;50.392;7.482;2022-12-20T12:17:26;40.43;;;27.90;;
4980;SDS011;2507;50.392;7.482;2022-12-20T12:20:22;32.47;;;24.93;;
4980;SDS011;2507;50.392;7.482;2022-12-20T12:23:16;38.00;;;28.63;;
4980;SDS011;2507;50.392;7.482;2022-12-20T12:26:04;49.07;;;33.20;;
4980;SDS011;2507;50.392;7.482;2022-12-20T12:28:36;39.40;;;29.40;;
4980;SDS011;2507;50.392;7.482;2022-12-20T12:31:06;30.87;;;23.20;;
4980;SDS011;2507;50.392;7.482;2022-12-20T12:33:48;29.03;;;25.90;;
4980;SDS011;2507;50.392;7.482;2022-12-20T12:39:21;27.07;;;20.17;;
4980;SDS011;2507;50.392;7.482;2022-12-20T12:45:02;26.53;;;18.93;;
4980;SDS011;2507;50.392;7.482;2022-12-20T12:47:39;24.40;;;16.03;;
4980;SDS011;2507;50.392;7.482;2022-12-20T12:50:31;23.57;;;18.67;;
4980;SDS011;2507;50.392;7.482;2022-12-20T12:53:05;25.23;;;19.20;;
4980;SDS011;2507;50.392;7.482;2022-12-20T12:55:52;24.17;;;18.20;;
4980;SDS011;2507;50.392;7.482;2022-12-20T13:00:51;24.73;;;18.03;;
4980;SDS011;2507;50.392;7.482;2022-12-20T13:03:33;28.40;;;20.10;;
4980;SDS011;2507;50.392;7.482;2022-12-20T13:06:22;24.77;;;18.07;;
4980;SDS011;2507;50.392;7.482;2022-12-20T13:08:48;21.73;;;17.43;;
4980;SDS011;2507;50.392;7.482;2022-12-20T13:11:38;20.20;;;16.70;;
4980;SDS011;2507;50.392;7.482;2022-12-20T13:19:34;19.43;;;14.13;;
4980;SDS011;2507;50.392;7.482;2022-12-20T13:40:49;14.80;;;13.20;;
4980;SDS011;2507;50.392;7.482;2022-12-20T13:45:47;15.13;;;13.60;;
4980;SDS011;2507;50.392;7.482;2022-12-20T13:48:19;18.80;;;14.00;;
4980;SDS011;2507;50.392;7.482;2022-12-20T13:50:52;18.37;;;14.53;;
4980;SDS011;2507;50.392;7.482;2022-12-20T13:53:20;19.53;;;14.80;;
4980;SDS011;2507;50.392;7.482;2022-12-20T13:55:47;23.43;;;15.43;;
4980;SDS011;2507;50.392;7.482;2022-12-20T14:00:49;17.63;;;14.47;;
4980;SDS011;2507;50.392;7.482;2022-12-20T14:03:25;16.60;;;14.53;;
4980;SDS011;2507;50.392;7.482;2022-12-20T14:06:11;17.00;;;14.13;;
4980;SDS011;2507;50.392;7.482;2022-12-20T14:08:40;17.27;;;14.10;;
4980;SDS011;2507;50.392;7.482;2022-12-20T14:13:56;19.67;;;14.57;;
4980;SDS011;2507;50.392;7.482;2022-12-20T14:16:26;20.53;;;13.07;;
4980;SDS011;2507;50.392;7.482;2022-12-20T14:19:01;18.30;;;14.73;;
4980;SDS011;2507;50.392;7.482;2022-12-20T14:21:28;22.37;;;15.77;;
4980;SDS011;2507;50.392;7.482;2022-12-20T14:23:55;16.67;;;14.73;;
4980;SDS011;2507;50.392;7.482;2022-12-20T14:26:23;22.93;;;15.50;;
4980;SDS011;2507;50.392;7.482;2022-12-20T14:33:50;20.43;;;16.47;;
4980;SDS011;2507;50.392;7.482;2022-12-20T14:38:45;17.23;;;15.03;;
4980;SDS011;2507;50.392;7.482;2022-12-20T14:44:24;20.60;;;16.83;;
4980;SDS011;2507;50.392;7.482;2022-12-20T14:46:49;40.37;;;30.30;;
4980;SDS011;2507;50.392;7.482;2022-12-20T14:49:33;31.83;;;21.93;;
4980;SDS011;2507;50.392;7.482;2022-12-20T15:05:52;16.80;;;13.53;;
4980;SDS011;2507;50.392;7.482;2022-12-20T15:08:17;20.47;;;13.10;;
4980;SDS011;2507;50.392;7.482;2022-12-20T15:11:05;12.30;;;11.10;;
4980;SDS011;2507;50.392;7.482;2022-12-20T15:13:44;15.67;;;14.03;;
4980;SDS011;2507;50.392;7.482;2022-12-20T15:18:57;18.00;;;14.60;;
4980;SDS011;2507;50.392;7.482;2022-12-20T15:21:29;20.23;;;16.53;;
4980;SDS011;2507;50.392;7.482;2022-12-20T15:23:58;34.40;;;24.20;;
4980;SDS011;2507;50.392;7.482;2022-12-20T15:26:26;28.40;;;21.27;;
4980;SDS011;2507;50.392;7.482;2022-12-20T15:28:53;19.97;;;17.57;;
4980;SDS011;2507;50.392;7.482;2022-12-20T15:31:19;21.80;;;16.23;;
4980;SDS011;2507;50.392;7.482;2022-12-20T15:33:48;20.80;;;15.07;;
4980;SDS011;2507;50.392;7.482;2022-12-20T15:36:19;20.43;;;14.70;;
4980;SDS011;2507;50.392;7.482;2022-12-20T15:38:45;23.30;;;17.23;;
4980;SDS011;2507;50.392;7.482;2022-12-20T15:41:18;25.80;;;19.27;;
4980;SDS011;2507;50.392;7.482;2022-12-20T15:43:53;24.00;;;18.43;;
4980;SDS011;2507;50.392;7.482;2022-12-20T15:46:20;22.67;;;16.53;;
4980;SDS011;2507;50.392;7.482;2022-12-20T15:48:46;22.33;;;16.43;;
4980;SDS011;2507;50.392;7.482;2022-12-20T15:53:56;30.60;;;21.70;;
4980;SDS011;2507;50.392;7.482;2022-12-20T15:56:23;25.60;;;18.30;;
4980;SDS011;2507;50.392;7.482;2022-12-20T15:58:49;27.57;;;21.20;;
4980;SDS011;2507;50.392;7.482;2022-12-20T16:01:24;26.00;;;19.93;;
4980;SDS011;2507;50.392;7.482;2022-12-20T16:03:51;23.07;;;17.80;;
4980;SDS011;2507;50.392;7.482;2022-12-20T16:06:16;21.63;;;17.13;;
4980;SDS011;2507;50.392;7.482;2022-12-20T16:08:42;19.70;;;15.30;;
4980;SDS011;2507;50.392;7.482;2022-12-20T16:11:41;23.17;;;17.33;;
4980;SDS011;2507;50.392;7.482;2022-12-20T16:13:59;22.17;;;16.90;;
4980;SDS011;2507;50.392;7.482;2022-12-20T16:16:29;16.43;;;13.83;;
4980;SDS011;2507;50.392;7.482;2022-12-20T16:18:55;17.20;;;14.97;;
4980;SDS011;2507;50.392;7.482;2022-12-20T16:21:32;15.30;;;13.57;;
4980;SDS011;2507;50.392;7.482;2022-12-20T16:24:00;16.43;;;12.80;;
4980;SDS011;2507;50.392;7.482;2022-12-20T16:26:26;18.37;;;16.17;;
4980;SDS011;2507;50.392;7.482;2022-12-20T16:28:52;17.70;;;15.77;;
4980;SDS011;2507;50.392;7.482;2022-12-20T16:31:26;16.30;;;13.57;;
4980;SDS011;2507;50.392;7.482;2022-12-20T16:33:54;13.30;;;11.43;;
4980;SDS011;2507;50.392;7.482;2022-12-20T16:36:21;13.13;;;11.83;;
4980;SDS011;2507;50.392;7.482;2022-12-20T16:38:47;21.87;;;19.57;;
4980;SDS011;2507;50.392;7.482;2022-12-20T16:41:17;13.50;;;12.07;;
4980;SDS011;2507;50.392;7.482;2022-12-20T16:43:44;13.27;;;11.73;;